Weather observations for the past three days for
Brooks Field Airport
Imperial (Metric)
Date Time (edt) Wind (mph) Vis. (mi.) Weather Sky Cond. Temperature (ºF) Relative Humidity Wind Chill (°F) Heat Index (°F) Pressure Precipitation (in)
Air Dwpt 6 hour altimeter (in) sea level (mb) 1 hr 3 hr 6 hr
Max. Min.
07 06:35 W 3 10.00 Fair CLR 34.7 30 83% 29.92 0.0
07 06:15 W 3 10.00 Fair CLR 35.2 30.7 84% 29.91 0.0
07 05:55 W 3 10.00 Fair CLR 34.9 30.2 83% 29.91 0.0
07 05:35 W 5 10.00 Fair CLR 34.2 29.7 84% 31 29.91 0.0
07 05:15 W 5 10.00 Partly Cloudy SCT070 35.6 30.2 81% 32 29.91 0.0
07 04:55 W 3 10.00 Partly Cloudy SCT060 36.7 30.6 79% 29.91 0.0
07 04:35 W 3 10.00 Mostly Cloudy BKN075 37.8 31.1 77% 29.91 0.0
07 04:15 SW 3 10.00 Partly Cloudy SCT075 38.3 31.1 75% 29.91 0.0
07 03:55 SW 3 10.00 Mostly Cloudy BKN075 38.5 31.1 75% 29.91 0.0
07 03:35 Calm 10.00 Mostly Cloudy BKN085 39.2 31.1 73% 29.91 0.0
07 03:15 Calm 10.00 Overcast OVC085 40.3 31.6 71% 29.91 0.0
07 02:55 Calm 10.00 Overcast OVC085 40.8 32 71% 29.91 0.0
07 02:35 Calm 10.00 Overcast OVC085 39.9 34 79% 29.92 0.0
07 02:15 Calm 10.00 Overcast OVC085 39 32.5 78% 29.92 0.0
07 01:55 Calm 10.00 Mostly Cloudy BKN085 39.7 32.5 50.7 39 76% 29.92 0.0
07 01:35 Calm 10.00 Partly Cloudy SCT085 39.2 30.2 70% 29.92 0.0
07 01:15 Calm 10.00 Partly Cloudy SCT085 41 31.1 68% 29.93 0.0
07 00:55 Calm 10.00 Partly Cloudy SCT095 43 29.1 58% 29.92 0.0
07 00:35 Calm 10.00 Overcast OVC095 43.5 31.6 63% 29.92 0.0
07 00:15 Calm 10.00 Overcast SCT080 OVC095 45.3 28.8 52% 29.92 0.0
06 23:55 Calm 10.00 Overcast SCT080 OVC095 45 29.1 54% 29.92 0.0
06 23:35 Calm 10.00 Overcast OVC085 45.7 30 54% 29.92 0.0
06 23:15 Calm 10.00 Overcast OVC085 45.3 30.7 57% 29.92 0.0
06 22:55 Calm 10.00 Overcast OVC085 46.4 28.8 50% 29.93 0.0
06 22:35 Calm 10.00 Overcast OVC085 46.6 28.8 50% 29.93 0.0
06 22:15 Calm 10.00 Overcast OVC085 47.7 27.1 45% 29.93 0.0
06 21:55 Calm 10.00 Overcast OVC085 47.8 27.5 45% 29.92 0.0
06 21:35 Calm 10.00 Overcast OVC085 47.3 29.3 50% 29.92 0.0
06 21:15 W 5 10.00 Overcast OVC085 47.5 28.4 48% 46 29.91 0.0
06 20:55 W 5 10.00 Overcast SCT075 OVC085 48.7 27 43% 47 29.91 0.0
06 20:35 W 7 10.00 Overcast SCT070 OVC080 49.6 25.7 39% 47 29.91 0.0
06 20:15 W 8 10.00 Overcast BKN070 OVC080 49.6 27.7 43% 47 29.91 0.0
06 19:55 W 5 10.00 Overcast OVC080 50.5 25.5 55.2 50.2 38% 29.91 0.0
06 19:35 W 5 10.00 Overcast OVC080 50.5 26.6 39% 29.91 0.0
06 19:15 W 9 10.00 Overcast OVC080 50.9 25.7 38% 29.91 0.0
06 18:55 W 12 10.00 Overcast OVC080 51.6 25.9 37% 29.91 0.0
06 18:35 W 9 10.00 Overcast OVC080 52 25.2 35% 29.91 0.0
06 18:15 W 12 G 17 10.00 Mostly Cloudy BKN070 52 25 35% 29.91 0.0
06 17:55 W 10 10.00 Overcast OVC070 52.5 25.7 35% 29.9 0.0
06 17:35 W 8 G 21 10.00 Overcast OVC070 53.1 26.2 35% 29.9 0.0
06 17:15 W 8 10.00 Overcast OVC070 53.6 27 36% 29.9 0.0
06 16:55 NW 6 10.00 Overcast OVC070 53.4 26.1 35% 29.89 0.0
06 16:35 Calm 10.00 Overcast OVC080 53.1 26.2 35% 29.9 0.0
06 16:15 W 8 10.00 Overcast SCT075 OVC080 53.2 27.3 37% 29.9 0.0
06 15:55 W 8 10.00 Overcast OVC075 53.1 26.4 36% 29.9 0.0
06 15:35 W 7 10.00 Mostly Cloudy BKN065 54.3 26.4 34% 29.9 0.0
06 15:15 SW 12 10.00 Overcast OVC065 54.7 27.3 35% 29.91 0.0
06 14:55 W 6 10.00 Overcast OVC065 54.9 27 34% 29.91 0.0
06 14:35 W 6 10.00 Mostly Cloudy BKN065 52.7 25.5 35% 29.91 0.0
06 14:15 W 7 10.00 Partly Cloudy SCT065 52.5 27.1 38% 29.91 0.0
06 13:55 W 12 10.00 Fair CLR 52.3 27.1 53.4 42.1 38% 29.91 0.0
06 13:35 W 12 10.00 Partly Cloudy SCT065 51.3 24.3 35% 29.91 0.0
06 13:15 NW 7 G 16 10.00 Partly Cloudy SCT070 52.9 25.2 34% 29.91 0.0
06 12:55 NW 10 10.00 Partly Cloudy SCT070 53.1 26.1 35% 29.92 0.0
06 12:35 W 8 10.00 Fair CLR 51.4 25 36% 29.92 0.0
06 12:15 W 10 G 21 10.00 Fair CLR 51.3 25.5 37% 29.92 0.0
06 11:55 W 10 G 16 10.00 Fair CLR 51.3 25.7 37% 29.91 0.0
06 11:35 NW 7 10.00 Fair CLR 50.5 24.3 36% 29.92 0.0
06 11:15 NW 8 10.00 Fair CLR 49.8 25.3 39% 47 29.92 0.0
06 10:55 W 10 10.00 Fair CLR 49.8 24.1 37% 46 29.91 0.0
06 10:35 NW 7 10.00 Fair CLR 49.3 24.4 38% 47 29.91 0.0
06 10:15 NW 6 10.00 Fair CLR 49.5 26.2 40% 48 29.91 0.0
06 09:55 NW 8 10.00 Fair CLR 48.7 26.6 42% 46 29.89 0.0
06 09:35 NW 6 10.00 Fair CLR 47.7 26.2 43% 45 29.89 0.0
06 09:15 NW 5 10.00 Fair CLR 46.8 27.1 46% 45 29.89 0.0
06 08:55 NW 8 10.00 Fair CLR 46.2 27.7 49% 43 29.89 0.0
06 08:35 NW 8 10.00 Fair CLR 45.3 28.4 52% 42 29.89 0.0
06 08:15 NW 5 10.00 Fair CLR 43.2 28.4 56% 41 29.87 0.0
06 07:55 NW 6 10.00 Fair CLR 41.9 28.4 45.7 37.4 59% 39 29.86 0.0
06 07:35 NW 5 10.00 Fair CLR 40.1 28.9 64% 37 29.86 0.0
06 07:15 W 3 10.00 Fair CLR 38.7 28.9 68% 29.85 0.0
06 06:55 W 5 10.00 Fair CLR 38.3 29.1 70% 35 29.84 0.0
06 06:35 Calm 10.00 Fair CLR 38.5 29.3 70% 29.84 0.0
06 06:15 NW 3 10.00 Fair CLR 37.9 29.3 71% 29.83 0.0
06 05:55 W 3 10.00 Fair CLR 38.1 29.7 72% 29.84 0.0
06 05:35 W 5 10.00 Fair CLR 38.1 29.7 72% 35 29.84 0.0
06 05:15 Calm 10.00 Fair CLR 40.6 29.1 64% 29.82 0.0
06 04:55 Calm 10.00 Partly Cloudy SCT110 43 28.8 57% 29.81 0.0
06 04:35 Calm 10.00 Overcast OVC110 44.1 28.9 55% 29.81 0.0
06 04:15 NW 3 10.00 Overcast OVC110 44.4 28.9 55% 29.81 0.0
06 03:55 Calm 10.00 Overcast OVC100 44.8 28.9 54% 29.81 0.0
06 03:35 NW 5 10.00 Overcast OVC100 45.1 28.6 52% 43 29.81 0.0
06 03:15 NW 3 10.00 Overcast OVC110 45.5 29.3 53% 29.81 0.0
06 02:55 NW 3 10.00 Overcast OVC120 45.5 29.8 54% 29.81 0.0
06 02:35 NW 5 10.00 Overcast OVC110 45.5 30.9 57% 44 29.81 0.0
06 02:15 NW 3 10.00 Overcast OVC100 45.7 31.5 58% 29.82 0.0
06 01:55 NW 3 10.00 Overcast OVC100 45.7 31.8 49.3 45 59% 29.82 0.0
06 01:35 W 3 10.00 Overcast SCT080 OVC100 45.7 32 59% 29.82 0.0
06 01:15 W 3 10.00 Overcast OVC080 45.9 32.4 59% 29.82 0.0
06 00:55 W 3 10.00 Overcast OVC090 45.9 32.9 61% 29.81 0.0
06 00:35 Calm 10.00 Overcast OVC090 45.9 34 63% 29.8 0.0
06 00:15 W 3 10.00 Mostly Cloudy BKN100 BKN120 46 33.8 62% 29.81 0.0
05 23:55 Calm 10.00 Partly Cloudy SCT120 45.5 34.9 67% 29.81 0.0
05 23:35 W 3 10.00 Partly Cloudy SCT120 45.1 35.2 68% 29.8 0.0
05 23:15 Calm 10.00 Partly Cloudy SCT090 SCT110 45.5 34.2 65% 29.8 0.0
05 22:55 Calm 10.00 Mostly Cloudy BKN090 46.8 32.7 58% 29.8 0.0
05 22:35 W 3 10.00 Overcast OVC090 46.4 34.5 63% 29.8 0.0
05 22:15 Calm 10.00 Overcast OVC100 47.1 33.1 58% 29.8 0.0
05 21:55 Calm 10.00 Overcast OVC100 47.5 30.7 52% 29.79 0.0
05 21:35 Calm 10.00 Overcast OVC110 47.7 30.6 52% 29.79 0.0
05 21:15 Calm 10.00 Overcast OVC100 47.8 30.4 51% 29.79 0.0
05 20:55 Calm 10.00 Mostly Cloudy BKN100 48.2 30.4 50% 29.78 0.0
05 20:35 Calm 10.00 Mostly Cloudy SCT100 BKN120 48.6 30.2 49% 29.78 0.0
05 20:15 W 3 10.00 Overcast OVC110 49.1 30.2 48% 29.79 0.0
05 19:55 W 3 10.00 Overcast OVC100 49.5 29.3 54.1 49.3 46% 29.78 0.0
05 19:35 W 3 10.00 Overcast OVC110 49.5 29.1 46% 29.79 0.0
05 19:15 NW 6 10.00 Overcast OVC120 49.8 28.4 44% 48 29.78 0.0
05 18:55 NW 5 10.00 Overcast OVC120 50.4 27.3 41% 29.78 0.0
05 18:35 W 8 10.00 Mostly Cloudy BKN120 50.9 28.4 42% 29.78 0.0
05 18:15 W 7 10.00 Partly Cloudy SCT120 50.9 27.5 40% 29.77 0.0
05 17:55 W 8 10.00 Partly Cloudy SCT090 51.3 27.7 40% 29.78 0.0
05 17:35 W 8 10.00 Partly Cloudy SCT090 51.8 27 38% 29.78 0.0
05 17:15 NW 7 10.00 Mostly Cloudy BKN090 52.2 28.6 40% 29.77 0.0
05 16:55 W 9 10.00 Overcast OVC075 52.5 30.7 43% 29.77 0.0
05 16:35 W 6 10.00 Overcast OVC075 52.7 30.9 43% 29.77 0.0
05 16:15 W 9 10.00 Overcast OVC075 53.1 30.9 43% 29.78 0.0
05 15:55 W 8 G 17 10.00 Overcast OVC075 53.6 31.8 44% 29.78 0.0
05 15:35 W 12 10.00 Overcast OVC075 53.8 32.7 45% 29.77 0.0
05 15:15 W 12 10.00 Overcast OVC075 53.1 33.8 48% 29.78 0.0
05 14:55 W 10 10.00 Overcast OVC075 52.7 32.7 47% 29.78 0.0
05 14:35 W 10 10.00 Overcast OVC075 53.8 36.1 51% 29.78 0.0
05 14:15 W 12 10.00 Overcast OVC075 52.9 35.8 52% 29.78 0.0
05 13:55 W 12 G 17 10.00 Mostly Cloudy BKN085 52.9 36.7 53.6 46.4 54% 29.77 0.0 0.02
05 13:35 W 12 10.00 Mostly Cloudy BKN085 52.5 37.8 57% 29.77 0.0
05 13:15 W 12 G 16 10.00 Partly Cloudy SCT095 52.9 37.2 55% 29.76 0.0
05 12:55 NW 6 10.00 Fair CLR 51.4 39.9 65% 29.75 0.0
05 12:35 W 10 10.00 Partly Cloudy SCT018 SCT049 51.6 42.1 70% 29.75 0.0
05 12:15 W 8 10.00 Partly Cloudy SCT016 SCT049 49.1 43 80% 46 29.76 0.0
05 11:55 W 8 10.00 Mostly Cloudy SCT014 SCT031 BKN049 47.8 42.4 82% 45 29.77 0.0 0.01
05 11:35 W 10 10.00 Mostly Cloudy SCT014 SCT031 BKN065 47.3 43.2 86% 43 29.77 0.0 0.01
05 11:15 W 12 7.00 Light Rain OVC075 46.6 43.2 88% 42 29.77 0.0 0.01
05 10:55 W 6 10.00 Light Rain OVC075 46.4 42.8 87% 44 29.77 0.0 0.01 0.01
05 10:35 W 7 10.00 Rain OVC075 46.8 42.6 86% 44 29.76 0.0
05 10:15 W 8 10.00 Light Rain SCT065 OVC075 48.9 42.3 78% 46 29.75 0.0
05 09:55 W 8 10.00 Overcast BKN075 OVC090 50.9 40.3 67% 29.73 0.0
05 09:35 W 8 G 16 10.00 Overcast OVC090 51.1 38.8 63% 29.72 0.0
05 09:15 W 9 10.00 Overcast OVC090 51.3 39.2 64% 29.72 0.0
05 08:55 W 14 G 18 10.00 Mostly Cloudy BKN090 BKN120 52.3 39.6 62% 29.71 0.0
05 08:35 W 9 10.00 Overcast SCT100 OVC120 52.7 40.1 62% 29.68 0.0
05 08:15 W 6 10.00 Mostly Cloudy BKN090 BKN120 52.7 39.9 62% 29.66 0.0
05 07:55 SW 3 10.00 Mostly Cloudy SCT065 BKN090 BKN120 52.3 39.2 56.7 50.9 61% 29.66 0.0
05 07:35 SW 6 10.00 Overcast SCT080 BKN090 OVC120 51.8 38.7 61% 29.66 0.0
05 07:15 W 8 10.00 Overcast BKN090 OVC110 51.4 39 63% 29.67 0.0
05 06:55 W 7 10.00 Overcast BKN090 OVC110 51.1 38.8 63% 29.66 0.0
05 06:35 W 8 10.00 Mostly Cloudy BKN100 BKN120 51.3 38.3 61% 29.64 0.0
05 06:15 W 7 10.00 Mostly Cloudy SCT100 BKN120 52 40.6 65% 29.62 0.0
05 05:55 W 8 10.00 Partly Cloudy SCT085 SCT110 53.4 49.3 86% 29.62 0.0
05 05:35 W 9 10.00 Mostly Cloudy SCT085 BKN120 53.8 51.1 91% 29.62 0.0
05 05:15 SW 6 10.00 Mostly Cloudy BKN085 55 52.2 90% 29.6 0.0
05 04:55 SW 7 10.00 Partly Cloudy SCT085 54.7 52 91% 29.6 0.0
05 04:35 SW 6 10.00 Fair CLR 55.2 52 89% 29.59 0.0
05 04:15 SW 7 10.00 Partly Cloudy SCT075 56.1 51.8 86% 29.59 0.0
05 03:55 SW 12 G 17 10.00 Mostly Cloudy BKN075 56.1 52.2 87% 29.59 0.0
05 03:35 SW 10 G 16 10.00 Partly Cloudy SCT070 56.3 52 86% 29.57 0.0
05 03:15 SW 10 G 17 10.00 Partly Cloudy SCT070 56.5 52 85% 29.57 0.0
05 02:55 SW 12 10.00 Fair CLR 56.5 52.2 86% 29.57 0.0
05 02:35 SW 7 10.00 Fair CLR 55.9 52.7 89% 29.56 0.0
05 02:15 SW 6 10.00 Fair CLR 55.8 52.7 90% 29.56 0.0
05 01:55 SW 3 10.00 Partly Cloudy SCT120 56.3 52.7 68.5 55.9 88% 29.56 0.0 0.03
05 01:35 W 5 10.00 Mostly Cloudy SCT085 SCT090 BKN110 56.1 52.7 88% 29.57 0.0
05 01:15 S 8 10.00 Mostly Cloudy SCT075 BKN085 BKN110 57.2 52.3 84% 29.54 0.0
05 00:55 S 9 10.00 Partly Cloudy SCT095 57.4 52.3 83% 29.55 0.0
05 00:35 SW 6 10.00 Partly Cloudy SCT100 SCT120 57.6 52.3 83% 29.54 0.0
05 00:15 S 5 10.00 Mostly Cloudy BKN110 57 52.7 86% 29.54 0.0
04 23:55 S 3 10.00 Partly Cloudy SCT110 57.2 52.7 85% 29.54 0.0 0.01
04 23:35 S 10 G 16 10.00 Overcast SCT080 BKN100 OVC120 57.4 54.1 89% 29.54 0.0 0.01
04 23:15 SE 7 10.00 Light Rain SCT048 BKN080 OVC090 58.1 53.4 85% 29.54 0.0 0.01
04 22:35 SW 16 G 26 10.00 Light Rain SCT090 BKN120 64.4 52.9 66% 29.57 0.0
04 22:15 SW 12 G 18 10.00 Partly Cloudy SCT120 65.5 53.2 65% 29.55 0.0
04 21:55 S 7 10.00 Partly Cloudy SCT110 64.6 54.1 69% 29.54 0.0
04 21:35 S 5 10.00 Mostly Cloudy SCT050 SCT080 BKN110 63 55.4 76% 29.53 0.0
04 21:15 SW 16 G 22 10.00 Light Rain SCT095 SCT120 66.2 53.8 64% 29.53 0.0
04 20:55 SW 13 G 18 10.00 Partly Cloudy SCT070 SCT080 67.5 51.6 57% 29.52 0.0
04 20:35 SW 9 G 18 10.00 Light Rain SCT055 BKN070 BKN080 67.3 52.3 59% 29.52 0.0
04 20:15 SW 13 G 21 10.00 Mostly Cloudy BKN075 BKN090 BKN110 68 51.8 56% 29.52 0.0
04 19:55 SW 8 10.00 Mostly Cloudy SCT075 BKN090 BKN110 68.5 51.4 75.7 68.2 55% 29.52 0.0
04 19:35 SW 6 G 16 10.00 Partly Cloudy SCT075 SCT090 68.5 51.1 54% 29.51 0.0
04 19:15 SW 12 G 18 10.00 Mostly Cloudy SCT075 BKN090 BKN110 68.2 52 56% 29.51 0.0
04 18:55 SW 17 G 29 10.00 Overcast BKN075 OVC090 69.1 51.1 53% 29.52 0.0
04 18:35 SW 15 G 30 10.00 Mostly Cloudy BKN075 BKN090 BKN120 73.2 48.2 41% 29.51 0.0
04 18:15 SW 16 G 21 10.00 Mostly Cloudy SCT075 SCT100 BKN120 75.6 48.2 38% 78 29.5 0.0
04 17:55 W 16 G 22 10.00 Mostly Cloudy SCT065 SCT085 BKN110 75 48.9 40% 77 29.5 0.0
04 17:35 SW 15 G 22 10.00 Mostly Cloudy SCT065 BKN085 BKN110 73.9 48.9 41% 29.51 0.0
04 17:15 SW 15 G 23 10.00 Mostly Cloudy BKN070 BKN080 BKN110 73.8 48.7 41% 29.52 0.0
04 16:55 SW 8 G 22 10.00 Mostly Cloudy SCT060 BKN070 73 48.6 42% 29.53 0.0
04 16:35 SW 16 G 21 10.00 Mostly Cloudy SCT060 BKN070 BKN080 74.5 50.4 43% 29.54 0.0
04 16:15 SW 14 G 24 10.00 Mostly Cloudy SCT060 BKN080 73 49.1 43% 29.54 0.0
04 15:55 SW 7 G 29 10.00 Mostly Cloudy SCT070 BKN080 BKN090 72.9 47.1 40% 29.55 0.0
04 15:35 SW 16 G 25 10.00 Mostly Cloudy SCT070 BKN080 72.7 45.7 38% 29.56 0.0
04 15:15 SW 10 G 24 10.00 Partly Cloudy SCT070 73.9 45.3 36% 29.56 0.0
04 14:55 SW 17 G 24 10.00 Partly Cloudy SCT070 73.2 43.2 34% 29.57 0.0
04 14:35 SW 16 G 23 10.00 Fair CLR 73.6 41.7 32% 29.57 0.0
04 14:15 SW 16 G 26 10.00 Fair CLR 73.4 39.9 30% 29.58 0.0
04 13:55 SW 13 G 22 10.00 Fair CLR 72.5 40.3 73.2 50.9 31% 29.59 0.0
04 13:35 SW 14 G 25 10.00 Fair CLR 72.9 39.7 30% 29.59 0.0
04 13:15 SW 15 G 22 10.00 Fair CLR 72.7 38.7 29% 29.6 0.0
04 12:55 SW 14 G 21 10.00 Fair CLR 71.6 40.5 32% 29.61 0.0
04 12:35 S 10 G 18 10.00 Fair CLR 70.9 41.7 35% 29.62 0.0
04 12:15 SW 10 G 17 10.00 Fair CLR 69.8 42.4 37% 29.63 0.0
04 11:55 S 12 10.00 Fair CLR 68.7 43.2 40% 29.63 0.0
04 11:35 SW 10 G 16 10.00 Fair CLR 67.6 43.7 42% 29.64 0.0
04 11:15 SW 12 G 16 10.00 Fair CLR 66.4 44.4 45% 29.65 0.0
04 10:55 SW 10 10.00 Fair CLR 64.9 45.3 49% 29.65 0.0
04 10:35 SW 6 10.00 Fair CLR 63.5 45.1 51% 29.65 0.0
04 10:15 SW 7 10.00 Fair CLR 61.3 44.8 55% 29.66 0.0
04 09:55 SW 7 10.00 Fair CLR 59.2 44.4 58% 29.66 0.0
04 09:35 SW 8 10.00 Fair CLR 57.9 44.6 61% 29.67 0.0
04 09:15 SW 8 10.00 Fair CLR 56.1 44.1 64% 29.67 0.0
04 08:55 SW 8 10.00 Fair CLR 54.3 43.5 67% 29.68 0.0
04 08:35 SW 10 10.00 Fair CLR 52.9 43 69% 29.68 0.0
04 08:15 SW 10 10.00 Fair CLR 51.8 42.3 70% 29.68 0.0
04 07:55 S 3 10.00 Fair CLR 50.5 41.9 50.5 47.7 72% 29.68 0.0
04 07:35 SW 6 10.00 Fair CLR 49.5 41.7 75% 48 29.68 0.0
04 07:15 SW 5 10.00 Fair CLR 48.4 41 76% 47 29.68 0.0
Date Time (edt) Wind (mph) Vis. (mi.) Weather Sky Cond. Air Dwpt Max. Min. Relative Humidity Wind Chill (°F) Heat Index (°F) altimeter (in) sea level (mb) 1 hr 3 hr 6 hr
6 hour
Temperature (ºF) Pressure Precipitation (in)